createdAt,value
2023-05-02T00:00:50.696Z,7.84
2023-05-02T00:03:25.678Z,7.70
2023-05-02T00:05:58.607Z,7.68
2023-05-02T00:08:31.525Z,7.74
2023-05-02T00:11:04.409Z,7.30
2023-05-02T00:13:37.303Z,7.25
2023-05-02T00:16:11.113Z,7.01
2023-05-02T00:18:45.575Z,7.11
2023-05-02T00:21:18.340Z,7.50
2023-05-02T00:23:52.147Z,7.64
2023-05-02T00:26:25.002Z,7.47
2023-05-02T00:28:59.066Z,7.43
2023-05-02T00:31:32.303Z,7.40
2023-05-02T00:34:06.750Z,7.50
2023-05-02T00:36:39.588Z,7.48
2023-05-02T00:39:12.456Z,7.42
2023-05-02T00:41:45.569Z,7.36
2023-05-02T00:44:18.412Z,7.34
2023-05-02T00:46:52.781Z,7.30
2023-05-02T00:49:27.462Z,6.79
2023-05-02T00:52:00.942Z,6.91
2023-05-02T00:54:34.005Z,6.46
2023-05-02T00:57:06.853Z,6.53
2023-05-02T00:59:40.458Z,6.97
2023-05-02T01:02:27.110Z,7.07
2023-05-02T01:05:11.483Z,6.92
2023-05-02T01:08:02.266Z,7.07
2023-05-02T01:10:54.960Z,6.76
2023-05-02T01:13:33.074Z,6.73
2023-05-02T01:16:08.954Z,6.97
2023-05-02T01:18:43.513Z,6.90
2023-05-02T01:21:17.784Z,7.07
2023-05-02T01:24:04.333Z,7.01
2023-05-02T01:26:46.828Z,7.14
2023-05-02T01:29:24.038Z,7.16
2023-05-02T01:31:59.823Z,7.23
2023-05-02T01:34:35.401Z,6.91
2023-05-02T01:37:12.204Z,6.98
2023-05-02T01:39:45.630Z,7.18
2023-05-02T01:42:21.237Z,7.24
2023-05-02T01:44:56.780Z,6.99
2023-05-02T01:47:33.776Z,6.74
2023-05-02T01:50:09.503Z,6.99
2023-05-02T01:52:43.237Z,6.97
2023-05-02T01:55:18.680Z,6.98
2023-05-02T01:57:55.362Z,7.02
2023-05-02T02:00:31.548Z,7.29
2023-05-02T02:03:07.404Z,7.16
2023-05-02T02:05:42.375Z,6.93
2023-05-02T02:08:15.092Z,7.10
2023-05-02T02:10:55.398Z,7.11
2023-05-02T02:13:35.569Z,7.00
2023-05-02T02:16:14.384Z,7.22
2023-05-02T02:18:47.629Z,7.28
2023-05-02T02:21:22.665Z,7.40
2023-05-02T02:23:58.571Z,7.24
2023-05-02T02:26:31.554Z,7.38
2023-05-02T02:29:05.342Z,7.50
2023-05-02T02:31:42.692Z,7.31
2023-05-02T02:34:16.187Z,7.15
2023-05-02T02:36:54.956Z,6.98
2023-05-02T02:39:41.475Z,6.99
2023-05-02T02:42:19.966Z,6.98
2023-05-02T02:44:57.802Z,6.82
2023-05-02T02:47:42.433Z,6.80
2023-05-02T02:50:20.691Z,6.95
2023-05-02T02:52:56.672Z,7.06
2023-05-02T02:55:37.799Z,7.34
2023-05-02T02:58:21.134Z,7.19
2023-05-02T03:00:54.542Z,7.29
2023-05-02T03:03:29.594Z,7.40
2023-05-02T03:06:04.862Z,7.46
2023-05-02T03:08:41.688Z,7.30
2023-05-02T03:11:18.369Z,7.52
2023-05-02T03:13:52.882Z,7.50
2023-05-02T03:16:37.093Z,7.79
2023-05-02T03:19:14.006Z,7.60
2023-05-02T03:21:46.861Z,7.45
2023-05-02T03:24:24.340Z,7.60
2023-05-02T03:27:00.062Z,7.95
2023-05-02T03:29:38.846Z,7.95
2023-05-02T03:32:11.943Z,8.11
2023-05-02T03:34:47.815Z,8.03
2023-05-02T03:37:20.675Z,8.14
2023-05-02T03:39:53.646Z,8.31
2023-05-02T03:42:26.557Z,8.17
2023-05-02T03:44:59.375Z,8.43
2023-05-02T03:47:34.193Z,8.14
2023-05-02T03:50:09.633Z,8.34
2023-05-02T03:52:42.809Z,8.52
2023-05-02T03:55:15.818Z,8.26
2023-05-02T03:57:49.187Z,8.02
2023-05-02T04:00:22.988Z,8.28
2023-05-02T04:03:03.618Z,8.61
2023-05-02T04:05:39.295Z,8.49
2023-05-02T04:08:13.408Z,8.89
2023-05-02T04:10:46.605Z,9.03
2023-05-02T04:13:20.410Z,9.06
2023-05-02T04:15:55.156Z,9.20
2023-05-02T04:18:29.469Z,9.10
2023-05-02T04:21:03.795Z,8.88
2023-05-02T04:23:37.232Z,9.15
2023-05-02T04:26:11.126Z,8.86
2023-05-02T04:28:51.153Z,9.14
2023-05-02T04:31:24.168Z,9.03
2023-05-02T04:33:57.564Z,9.02
2023-05-02T04:36:34.715Z,9.18
2023-05-02T04:39:08.537Z,9.11
2023-05-02T04:41:44.164Z,9.25
2023-05-02T04:44:16.957Z,9.43
2023-05-02T04:46:50.629Z,9.47
2023-05-02T04:49:24.794Z,9.59
2023-05-02T04:51:59.110Z,9.43
2023-05-02T04:54:33.604Z,9.30
2023-05-02T04:57:08.141Z,9.50
2023-05-02T04:59:43.474Z,9.52
2023-05-02T05:02:16.406Z,9.36
2023-05-02T05:04:49.247Z,9.60
2023-05-02T05:07:25.697Z,9.34
2023-05-02T05:10:00.572Z,9.41
2023-05-02T05:12:38.239Z,9.52
2023-05-02T05:15:12.260Z,9.50
2023-05-02T05:17:49.611Z,9.69
2023-05-02T05:20:22.780Z,9.79
2023-05-02T05:23:00.047Z,9.72
2023-05-02T05:25:33.994Z,9.83
2023-05-02T05:28:07.101Z,9.65
2023-05-02T05:30:42.140Z,9.72
2023-05-02T05:33:18.198Z,9.53
2023-05-02T05:35:51.303Z,9.77
2023-05-02T05:38:25.632Z,9.66
2023-05-02T05:40:58.635Z,10.11
2023-05-02T05:43:32.435Z,10.21
2023-05-02T05:46:06.057Z,10.24
2023-05-02T05:48:40.552Z,10.13
2023-05-02T05:51:13.555Z,10.12
2023-05-02T05:53:47.863Z,10.28
2023-05-02T05:56:21.949Z,10.00
2023-05-02T05:59:05.182Z,10.04
2023-05-02T06:01:39.089Z,10.23
2023-05-02T06:04:12.248Z,10.31
2023-05-02T06:06:48.084Z,10.51
2023-05-02T06:09:22.418Z,10.73
2023-05-02T06:11:55.210Z,10.57
2023-05-02T06:14:28.001Z,10.71
2023-05-02T06:17:00.954Z,10.48
2023-05-02T06:19:34.587Z,10.54
2023-05-02T06:22:07.358Z,10.65
2023-05-02T06:24:41.406Z,11.03
2023-05-02T06:27:14.223Z,10.98
2023-05-02T06:29:47.033Z,11.27
2023-05-02T06:32:19.941Z,11.04
2023-05-02T06:34:52.836Z,11.13
2023-05-02T06:37:26.071Z,11.65
2023-05-02T06:40:00.885Z,11.69
2023-05-02T06:42:33.811Z,11.52
2023-05-02T06:45:07.779Z,11.62
2023-05-02T06:47:40.593Z,12.10
2023-05-02T06:50:13.400Z,12.30
2023-05-02T06:52:46.158Z,12.52
2023-05-02T06:55:21.151Z,12.38
2023-05-02T06:57:54.346Z,12.61
2023-05-02T07:00:27.154Z,12.28
2023-05-02T07:03:00.404Z,12.36
2023-05-02T07:05:33.521Z,12.44
2023-05-02T07:08:06.800Z,12.69
2023-05-02T07:10:40.992Z,13.02
2023-05-02T07:13:13.818Z,13.21
2023-05-02T07:15:46.629Z,13.40
2023-05-02T07:18:19.515Z,13.16
2023-05-02T07:20:52.487Z,13.46
2023-05-02T07:23:25.378Z,14.00
2023-05-02T07:25:59.577Z,14.15
2023-05-02T07:28:32.811Z,14.59
2023-05-02T07:31:05.706Z,14.29
2023-05-02T07:33:38.393Z,14.33
2023-05-02T07:36:11.130Z,14.44
2023-05-02T07:38:43.889Z,14.67
2023-05-02T07:41:17.984Z,14.44
2023-05-02T07:43:50.763Z,14.66
2023-05-02T07:46:23.597Z,15.03
2023-05-02T07:48:56.428Z,14.86
2023-05-02T07:51:29.251Z,15.13
2023-05-02T07:54:02.202Z,15.18
2023-05-02T07:56:36.555Z,15.04
2023-05-02T07:59:09.600Z,15.03
2023-05-02T08:01:42.691Z,15.28
2023-05-02T08:04:16.032Z,14.90
2023-05-02T08:06:48.960Z,14.77
2023-05-02T08:09:21.828Z,15.03
2023-05-02T08:11:55.908Z,15.13
2023-05-02T08:14:29.019Z,15.04
2023-05-02T08:17:02.216Z,15.14
2023-05-02T08:19:34.976Z,15.39
2023-05-02T08:22:07.917Z,15.24
2023-05-02T08:24:40.810Z,15.18
2023-05-02T08:27:15.418Z,15.54
2023-05-02T08:29:48.381Z,15.64
2023-05-02T08:32:22.374Z,15.55
2023-05-02T08:34:56.180Z,15.69
2023-05-02T08:37:28.979Z,15.54
2023-05-02T08:40:02.359Z,15.25
2023-05-02T08:42:37.306Z,15.84
2023-05-02T08:45:13.907Z,16.49
2023-05-02T08:47:49.466Z,16.85
2023-05-02T08:50:23.155Z,16.74
2023-05-02T08:52:58.116Z,16.29
2023-05-02T08:55:31.680Z,16.82
2023-05-02T08:58:06.061Z,16.95
2023-05-02T09:00:41.024Z,16.11
2023-05-02T09:03:30.118Z,16.49
2023-05-02T09:06:08.073Z,16.81
2023-05-02T09:08:41.645Z,16.68
2023-05-02T09:11:14.720Z,17.25
2023-05-02T09:13:49.729Z,17.15
2023-05-02T09:16:25.441Z,18.27
2023-05-02T09:18:59.746Z,17.80
2023-05-02T09:21:38.429Z,18.57
2023-05-02T09:24:19.342Z,18.01
2023-05-02T09:27:01.095Z,17.83
2023-05-02T09:29:37.887Z,17.10
2023-05-02T09:32:10.709Z,16.93
2023-05-02T09:35:08.398Z,16.71
2023-05-02T09:37:41.289Z,17.02
2023-05-02T09:40:14.922Z,17.81
2023-05-02T09:42:47.941Z,17.90
2023-05-02T09:45:22.610Z,18.34
2023-05-02T09:47:55.449Z,19.12
2023-05-02T09:50:37.143Z,19.21
2023-05-02T09:53:11.808Z,18.95
2023-05-02T09:55:44.512Z,18.63
2023-05-02T09:58:24.552Z,18.46
2023-05-02T10:00:58.162Z,19.11
2023-05-02T10:03:32.241Z,18.88
2023-05-02T10:06:10.421Z,19.13
2023-05-02T10:08:45.372Z,19.26
2023-05-02T10:11:18.694Z,18.71
2023-05-02T10:13:51.926Z,18.75
2023-05-02T10:16:30.400Z,19.46
2023-05-02T10:19:08.350Z,20.68
2023-05-02T10:21:44.790Z,19.75
2023-05-02T10:24:18.100Z,19.70
2023-05-02T10:26:51.591Z,19.15
2023-05-02T10:29:24.982Z,17.94
2023-05-02T10:31:58.993Z,17.40
2023-05-02T10:34:33.981Z,17.47
2023-05-02T10:37:08.314Z,16.75
2023-05-02T10:39:41.355Z,16.85
2023-05-02T10:42:15.700Z,16.80
2023-05-02T10:44:49.191Z,16.95
2023-05-02T10:47:22.758Z,17.12
2023-05-02T10:49:58.044Z,17.80
2023-05-02T10:52:35.360Z,18.76
2023-05-02T10:55:19.280Z,19.16
2023-05-02T10:58:24.880Z,19.52
2023-05-02T11:01:37.042Z,20.17
2023-05-02T11:04:11.374Z,18.94
2023-05-02T11:07:19.206Z,18.90
2023-05-02T11:09:53.625Z,18.69
2023-05-02T11:12:46.523Z,18.21
2023-05-02T11:15:59.864Z,17.29
2023-05-02T11:19:00.761Z,16.81
2023-05-02T11:21:33.691Z,16.66
2023-05-02T11:24:40.369Z,16.80
2023-05-02T11:27:44.236Z,16.47
2023-05-02T11:30:44.300Z,16.71
2023-05-02T11:33:18.347Z,16.82
2023-05-02T11:35:51.561Z,17.13
2023-05-02T11:38:24.584Z,17.45
2023-05-02T11:40:59.482Z,17.44
2023-05-02T11:43:34.020Z,17.57
2023-05-02T11:46:07.894Z,17.37
2023-05-02T11:48:42.512Z,17.35
2023-05-02T11:51:15.386Z,17.27
2023-05-02T11:53:48.705Z,16.97
2023-05-02T11:56:26.547Z,16.79
2023-05-02T11:59:01.763Z,16.94
2023-05-02T12:01:34.461Z,16.92
2023-05-02T12:04:10.311Z,17.03
2023-05-02T12:06:56.082Z,17.46
2023-05-02T12:09:28.945Z,17.86
2023-05-02T12:12:02.727Z,19.01
2023-05-02T12:14:38.000Z,19.31
2023-05-02T12:17:11.465Z,19.40
2023-05-02T12:19:44.743Z,19.48
2023-05-02T12:22:18.684Z,19.83
2023-05-02T12:24:53.426Z,20.04
2023-05-02T12:27:26.967Z,19.58
2023-05-02T12:30:01.876Z,19.82
2023-05-02T12:32:37.583Z,20.36
2023-05-02T12:35:22.843Z,20.75
2023-05-02T12:37:56.073Z,20.76
2023-05-02T12:40:28.816Z,21.03
2023-05-02T12:43:04.322Z,21.55
2023-05-02T12:45:38.684Z,20.95
2023-05-02T12:48:25.567Z,21.47
2023-05-02T12:50:58.624Z,21.69
2023-05-02T12:53:42.092Z,20.51
2023-05-02T12:56:15.258Z,20.35
2023-05-02T12:58:49.322Z,19.64
2023-05-02T13:01:23.824Z,19.32
2023-05-02T13:03:56.834Z,19.40
2023-05-02T13:06:29.814Z,19.07
2023-05-02T13:09:02.881Z,19.14
2023-05-02T13:11:35.625Z,18.62
2023-05-02T13:14:08.590Z,18.67
2023-05-02T13:16:42.692Z,18.71
2023-05-02T13:19:15.501Z,19.01
2023-05-02T13:21:48.422Z,19.93
2023-05-02T13:24:21.159Z,21.03
2023-05-02T13:26:53.861Z,21.47
2023-05-02T13:29:26.605Z,21.60
2023-05-02T13:32:00.778Z,21.38
2023-05-02T13:34:33.757Z,21.11
2023-05-02T13:37:06.548Z,21.15
2023-05-02T13:39:39.303Z,21.57
2023-05-02T13:42:12.001Z,21.20
2023-05-02T13:44:44.798Z,22.17
2023-05-02T13:47:18.872Z,22.11
2023-05-02T13:49:52.137Z,21.35
2023-05-02T13:52:25.007Z,21.60
2023-05-02T13:54:57.762Z,21.64
2023-05-02T13:57:30.447Z,21.77
2023-05-02T14:00:04.141Z,21.43
2023-05-02T14:02:39.983Z,20.04
2023-05-02T14:05:13.030Z,19.94
2023-05-02T14:07:45.989Z,20.16
2023-05-02T14:10:18.949Z,20.03
2023-05-02T14:12:53.076Z,19.40
2023-05-02T14:15:27.023Z,19.23
2023-05-02T14:18:01.285Z,19.07
2023-05-02T14:20:34.035Z,19.20
2023-05-02T14:23:07.573Z,18.88
2023-05-02T14:25:40.703Z,19.36
2023-05-02T14:28:13.376Z,19.49
2023-05-02T14:30:46.113Z,19.45
2023-05-02T14:33:20.256Z,20.15
2023-05-02T14:35:52.996Z,20.98
2023-05-02T14:38:25.856Z,20.91
2023-05-02T14:40:58.633Z,21.03
2023-05-02T14:43:31.615Z,19.74
2023-05-02T14:46:04.448Z,19.32
2023-05-02T14:48:38.584Z,19.15
2023-05-02T14:51:11.429Z,19.77
2023-05-02T14:53:44.382Z,19.53
2023-05-02T14:56:18.725Z,18.76
2023-05-02T14:58:51.567Z,18.86
2023-05-02T15:01:24.654Z,19.01
2023-05-02T15:04:06.809Z,18.73
2023-05-02T15:06:41.013Z,18.97
2023-05-02T15:09:14.207Z,19.14
2023-05-02T15:11:47.197Z,18.86
2023-05-02T15:14:19.965Z,19.75
2023-05-02T15:16:52.875Z,20.14
2023-05-02T15:19:27.905Z,20.16
2023-05-02T15:22:01.717Z,19.78
2023-05-02T15:24:34.503Z,19.48
2023-05-02T15:27:09.433Z,19.20
2023-05-02T15:29:42.300Z,19.14
2023-05-02T15:32:15.109Z,18.64
2023-05-02T15:34:49.352Z,18.61
2023-05-02T15:37:22.080Z,18.33
2023-05-02T15:39:54.808Z,18.26
2023-05-02T15:42:27.573Z,18.23
2023-05-02T15:45:00.231Z,18.10
2023-05-02T15:47:33.042Z,18.03
2023-05-02T15:50:08.417Z,18.11
2023-05-02T15:52:41.146Z,17.97
2023-05-02T15:55:13.864Z,17.97
2023-05-02T15:57:47.116Z,18.11
2023-05-02T16:00:20.343Z,18.15
2023-05-02T16:02:53.330Z,18.34
2023-05-02T16:05:27.452Z,19.08
2023-05-02T16:08:01.610Z,19.37
2023-05-02T16:10:36.761Z,19.78
2023-05-02T16:13:09.645Z,19.81
2023-05-02T16:15:42.349Z,19.97
2023-05-02T16:18:15.205Z,20.06
2023-05-02T16:20:50.108Z,19.50
2023-05-02T16:23:23.534Z,19.52
2023-05-02T16:26:00.018Z,19.53
2023-05-02T16:28:32.815Z,19.15
2023-05-02T16:31:11.012Z,19.15
2023-05-02T16:33:44.015Z,18.60
2023-05-02T16:36:18.747Z,19.07
2023-05-02T16:38:51.580Z,18.88
2023-05-02T16:41:24.293Z,18.94
2023-05-02T16:43:57.097Z,19.07
2023-05-02T16:46:29.811Z,19.23
2023-05-02T16:49:02.539Z,19.05
2023-05-02T16:51:36.860Z,18.77
2023-05-02T16:54:10.745Z,18.87
2023-05-02T16:56:43.573Z,18.79
2023-05-02T16:59:16.318Z,18.64
2023-05-02T17:01:50.251Z,18.53
2023-05-02T17:04:23.088Z,18.29
2023-05-02T17:06:57.222Z,18.05
2023-05-02T17:09:30.176Z,17.56
2023-05-02T17:12:04.480Z,17.75
2023-05-02T17:14:38.551Z,17.51
2023-05-02T17:17:11.418Z,17.46
2023-05-02T17:19:44.263Z,17.55
2023-05-02T17:22:19.020Z,17.33
2023-05-02T17:24:54.016Z,17.33
2023-05-02T17:27:27.230Z,17.34
2023-05-02T17:30:00.253Z,17.41
2023-05-02T17:32:34.849Z,17.22
2023-05-02T17:35:08.164Z,17.00
2023-05-02T17:37:42.295Z,16.91
2023-05-02T17:40:15.077Z,16.91
2023-05-02T17:42:47.877Z,16.66
2023-05-02T17:45:20.620Z,16.61
2023-05-02T17:47:53.582Z,16.34
2023-05-02T17:50:26.344Z,16.17
2023-05-02T17:53:00.563Z,16.31
2023-05-02T17:55:33.981Z,16.13
2023-05-02T17:58:07.061Z,16.00
2023-05-02T18:00:40.474Z,15.85
2023-05-02T18:03:13.474Z,15.78
2023-05-02T18:05:47.861Z,15.53
2023-05-02T18:08:22.378Z,15.54
2023-05-02T18:10:55.202Z,15.25
2023-05-02T18:13:32.530Z,15.15
2023-05-02T18:16:06.208Z,15.11
2023-05-02T18:18:39.031Z,14.84
2023-05-02T18:21:12.308Z,14.92
2023-05-02T18:23:47.004Z,14.63
2023-05-02T18:26:28.905Z,14.65
2023-05-02T18:29:01.651Z,14.61
2023-05-02T18:31:35.981Z,14.40
2023-05-02T18:34:08.844Z,14.49
2023-05-02T18:36:41.649Z,14.29
2023-05-02T18:39:16.157Z,14.15
2023-05-02T18:41:48.947Z,13.89
2023-05-02T18:44:21.826Z,14.01
2023-05-02T18:46:54.531Z,13.78
2023-05-02T18:49:27.444Z,13.87
2023-05-02T18:52:00.616Z,13.92
2023-05-02T18:54:34.697Z,13.70
2023-05-02T18:57:07.918Z,13.72
2023-05-02T18:59:40.604Z,13.82
2023-05-02T19:02:13.298Z,13.77
2023-05-02T19:04:46.375Z,13.62
2023-05-02T19:07:19.240Z,13.49
2023-05-02T19:09:53.363Z,13.38
2023-05-02T19:12:26.176Z,13.36
2023-05-02T19:14:58.918Z,13.24
2023-05-02T19:17:31.800Z,13.17
2023-05-02T19:20:06.265Z,13.00
2023-05-02T19:22:39.110Z,13.04
2023-05-02T19:25:13.832Z,12.86
2023-05-02T19:27:47.707Z,12.85
2023-05-02T19:30:21.738Z,12.56
2023-05-02T19:32:54.689Z,12.82
2023-05-02T19:35:27.883Z,12.48
2023-05-02T19:38:00.641Z,12.68
2023-05-02T19:40:35.054Z,12.45
2023-05-02T19:43:07.770Z,12.43
2023-05-02T19:45:40.576Z,12.37
2023-05-02T19:48:14.678Z,12.22
2023-05-02T19:50:47.526Z,12.24
2023-05-02T19:53:20.386Z,11.95
2023-05-02T19:55:54.523Z,12.07
2023-05-02T19:58:27.794Z,11.95
2023-05-02T20:01:00.618Z,11.94
2023-05-02T20:03:34.719Z,12.23
2023-05-02T20:06:07.791Z,11.93
2023-05-02T20:08:40.826Z,11.92
2023-05-02T20:11:14.833Z,11.66
2023-05-02T20:13:47.506Z,11.68
2023-05-02T20:16:20.638Z,11.73
2023-05-02T20:18:53.822Z,11.59
2023-05-02T20:21:26.733Z,11.53
2023-05-02T20:23:59.596Z,11.56
2023-05-02T20:26:34.719Z,11.62
2023-05-02T20:29:07.921Z,11.72
2023-05-02T20:31:41.341Z,11.72
2023-05-02T20:34:15.042Z,11.70
2023-05-02T20:36:48.303Z,11.57
2023-05-02T20:39:22.065Z,11.76
2023-05-02T20:41:58.495Z,11.75
2023-05-02T20:44:33.645Z,11.68
2023-05-02T20:47:07.447Z,11.68
2023-05-02T20:49:41.475Z,11.56
2023-05-02T20:52:16.367Z,11.68
2023-05-02T20:54:50.955Z,11.65
2023-05-02T20:57:26.157Z,11.52
2023-05-02T21:00:00.829Z,11.68
2023-05-02T21:02:34.511Z,11.49
2023-05-02T21:05:07.966Z,11.54
2023-05-02T21:07:41.497Z,11.48
2023-05-02T21:10:15.013Z,11.55
2023-05-02T21:12:49.185Z,11.49
2023-05-02T21:15:21.963Z,11.40
2023-05-02T21:18:02.083Z,11.38
2023-05-02T21:20:34.932Z,11.31
2023-05-02T21:23:07.684Z,11.29
2023-05-02T21:25:40.702Z,11.29
2023-05-02T21:28:14.717Z,11.13
2023-05-02T21:30:47.442Z,11.11
2023-05-02T21:33:20.146Z,11.09
2023-05-02T21:35:56.886Z,11.00
2023-05-02T21:38:29.847Z,11.13
2023-05-02T21:41:03.584Z,10.93
2023-05-02T21:43:39.883Z,10.86
2023-05-02T21:46:13.164Z,10.59
2023-05-02T21:48:46.048Z,10.84
2023-05-02T21:51:19.239Z,10.92
2023-05-02T21:53:53.708Z,10.80
2023-05-02T21:56:26.753Z,10.65
2023-05-02T21:59:00.971Z,10.72
2023-05-02T22:01:33.953Z,10.71
2023-05-02T22:04:06.676Z,10.73
2023-05-02T22:06:39.443Z,10.73
2023-05-02T22:09:13.604Z,10.56
2023-05-02T22:11:46.334Z,10.92
2023-05-02T22:14:22.099Z,10.93
2023-05-02T22:16:58.403Z,10.76
2023-05-02T22:19:31.476Z,10.83
2023-05-02T22:22:05.321Z,10.78
2023-05-02T22:24:38.153Z,10.62
2023-05-02T22:27:10.907Z,10.84
2023-05-02T22:29:44.963Z,10.92
2023-05-02T22:32:18.851Z,10.63
2023-05-02T22:34:51.746Z,10.72
2023-05-02T22:37:24.493Z,10.49
2023-05-02T22:39:57.218Z,10.62
2023-05-02T22:42:29.932Z,10.33
2023-05-02T22:45:04.330Z,10.27
2023-05-02T22:47:37.221Z,10.18
2023-05-02T22:50:11.210Z,10.36
2023-05-02T22:52:44.766Z,10.31
2023-05-02T22:55:17.847Z,10.08
2023-05-02T22:57:50.666Z,10.26
2023-05-02T23:00:25.887Z,10.06
2023-05-02T23:02:58.952Z,9.79
2023-05-02T23:05:32.129Z,9.98
2023-05-02T23:08:05.277Z,9.82
2023-05-02T23:10:38.037Z,9.75
2023-05-02T23:13:11.091Z,9.59
2023-05-02T23:15:45.240Z,9.41
2023-05-02T23:18:18.403Z,9.23
2023-05-02T23:20:51.990Z,9.12
2023-05-02T23:23:25.058Z,8.94
2023-05-02T23:25:57.817Z,8.94
2023-05-02T23:28:30.636Z,8.74
2023-05-02T23:31:05.508Z,8.68
2023-05-02T23:33:38.852Z,8.64
2023-05-02T23:36:11.702Z,8.58
2023-05-02T23:38:44.799Z,8.70
2023-05-02T23:41:17.690Z,8.68
2023-05-02T23:43:50.905Z,8.68
2023-05-02T23:46:25.160Z,8.62
2023-05-02T23:48:57.974Z,8.49
2023-05-02T23:51:31.759Z,8.58
2023-05-02T23:54:04.524Z,8.54
2023-05-02T23:56:37.362Z,8.36
2023-05-02T23:59:10.213Z,8.41
